Time;durP1;ratioP1;P1;durP2;ratioP2;P2;SDS_P1;SDS_P2;PMS_P1;PMS_P2;Temp;Humidity;BMP_temperature;BMP_pressure;BME280_temperature;BME280_humidity;BME280_pressure;Samples;Min_cycle;Max_cycle;Signal;HPM_P1;HPM_P2
2022/11/29 00:00:26;;;;;;;27.13;17.35;;;;;;;;;;5064198;28;20522;-67
2022/11/29 00:02:52;;;;;;;27.30;17.45;;;;;;;;;;5063964;28;20217;-67
2022/11/29 00:05:20;;;;;;;23.02;17.73;;;;;;;;;;5063952;28;20215;-67
2022/11/29 00:07:46;;;;;;;23.75;17.05;;;;;;;;;;5063369;28;20251;-67
2022/11/29 00:10:12;;;;;;;24.17;16.33;;;;;;;;;;5063684;28;20204;-67
2022/11/29 00:12:39;;;;;;;22.17;16.83;;;;;;;;;;5063952;28;20520;-67
2022/11/29 00:15:05;;;;;;;28.10;18.30;;;;;;;;;;5063523;28;20198;-67
2022/11/29 00:17:32;;;;;;;22.83;17.13;;;;;;;;;;5063489;28;20211;-67
2022/11/29 00:19:58;;;;;;;26.65;17.77;;;;;;;;;;5063409;28;20205;-67
2022/11/29 00:22:25;;;;;;;26.90;16.45;;;;;;;;;;5063424;28;20197;-67
2022/11/29 00:24:52;;;;;;;21.67;16.55;;;;;;;;;;5063556;28;20375;-67
2022/11/29 00:27:18;;;;;;;23.13;16.92;;;;;;;;;;5062573;28;20223;-67
2022/11/29 00:29:44;;;;;;;20.40;16.40;;;;;;;;;;5063135;28;20197;-67
2022/11/29 00:32:11;;;;;;;27.65;17.00;;;;;;;;;;5063381;28;20204;-67
2022/11/29 00:34:37;;;;;;;22.27;17.00;;;;;;;;;;5063246;28;20201;-67
2022/11/29 00:37:03;;;;;;;22.80;16.70;;;;;;;;;;5063157;28;20205;-67
2022/11/29 00:39:31;;;;;;;22.90;16.83;;;;;;;;;;5062827;28;20230;-67
2022/11/29 00:41:57;;;;;;;21.63;16.02;;;;;;;;;;5063269;28;20205;-67
2022/11/29 00:44:24;;;;;;;24.02;16.55;;;;;;;;;;5062990;28;20231;-67
2022/11/29 00:46:50;;;;;;;22.75;15.77;;;;;;;;;;5063117;28;20212;-67
2022/11/29 00:49:16;;;;;;;22.98;16.20;;;;;;;;;;5062799;28;20208;-67
2022/11/29 00:51:43;;;;;;;22.70;16.40;;;;;;;;;;5062838;28;20203;-67
2022/11/29 00:54:09;;;;;;;22.35;15.93;;;;;;;;;;5063126;28;20215;-67
2022/11/29 00:56:37;;;;;;;25.08;16.85;;;;;;;;;;5063020;28;20197;-67
2022/11/29 00:59:03;;;;;;;24.15;16.30;;;;;;;;;;5062590;28;20197;-67
2022/11/29 01:01:29;;;;;;;24.13;16.55;;;;;;;;;;5062910;28;20372;-67
2022/11/29 01:03:55;;;;;;;25.25;16.90;;;;;;;;;;5062632;28;20224;-67
2022/11/29 01:06:22;;;;;;;23.05;16.73;;;;;;;;;;5062538;28;20523;-67
2022/11/29 01:08:49;;;;;;;23.00;16.67;;;;;;;;;;5062609;28;20249;-68
2022/11/29 01:11:19;;;;;;;25.27;16.73;;;;;;;;;;5062735;28;20522;-68
2022/11/29 01:13:46;;;;;;;24.83;16.52;;;;;;;;;;5062611;28;20394;-68
2022/11/29 01:16:13;;;;;;;20.85;15.88;;;;;;;;;;5062487;28;20198;-68
2022/11/29 01:18:39;;;;;;;25.60;17.45;;;;;;;;;;5062132;28;20200;-67
2022/11/29 01:21:07;;;;;;;22.13;15.52;;;;;;;;;;5062302;28;20197;-67
2022/11/29 01:23:33;;;;;;;24.77;17.27;;;;;;;;;;5062244;28;20288;-67
2022/11/29 01:26:02;;;;;;;24.80;17.65;;;;;;;;;;5062443;28;20217;-67
2022/11/29 01:28:28;;;;;;;27.42;17.95;;;;;;;;;;5061847;28;20217;-67
2022/11/29 01:30:56;;;;;;;27.63;17.23;;;;;;;;;;5062657;28;20205;-67
2022/11/29 01:33:22;;;;;;;23.48;16.20;;;;;;;;;;5061895;28;20376;-67
2022/11/29 01:35:49;;;;;;;23.92;16.98;;;;;;;;;;5062330;28;20523;-67
2022/11/29 01:38:16;;;;;;;23.58;17.10;;;;;;;;;;5061798;28;20212;-67
2022/11/29 01:40:42;;;;;;;21.50;16.27;;;;;;;;;;5062192;28;20378;-67
2022/11/29 01:43:12;;;;;;;22.60;16.58;;;;;;;;;;5061901;28;20217;-67
2022/11/29 01:45:39;;;;;;;23.02;16.73;;;;;;;;;;5061946;28;20519;-68
2022/11/29 01:48:07;;;;;;;20.00;16.33;;;;;;;;;;5061660;28;20212;-68
2022/11/29 01:50:33;;;;;;;23.83;16.55;;;;;;;;;;5062153;28;20521;-68
2022/11/29 01:52:59;;;;;;;21.83;16.33;;;;;;;;;;5062132;28;20213;-67
2022/11/29 01:55:25;;;;;;;23.00;15.38;;;;;;;;;;5061918;28;20196;-67
2022/11/29 01:57:52;;;;;;;26.90;16.60;;;;;;;;;;5061724;28;20198;-67
2022/11/29 02:00:19;;;;;;;20.92;16.13;;;;;;;;;;5061797;28;20197;-67
2022/11/29 02:02:47;;;;;;;23.60;16.63;;;;;;;;;;5061727;28;20205;-67
2022/11/29 02:05:16;;;;;;;20.55;16.77;;;;;;;;;;5061954;28;20200;-67
2022/11/29 02:07:44;;;;;;;19.05;16.00;;;;;;;;;;5061780;28;20512;-67
2022/11/29 02:10:11;;;;;;;21.65;16.15;;;;;;;;;;5061911;28;20220;-67
2022/11/29 02:12:43;;;;;;;24.55;16.17;;;;;;;;;;5061740;28;20203;-67
2022/11/29 02:15:18;;;;;;;22.90;16.33;;;;;;;;;;5061695;28;20204;-67
2022/11/29 02:17:49;;;;;;;23.20;16.73;;;;;;;;;;5061402;28;20206;-67
2022/11/29 02:20:31;;;;;;;24.15;15.95;;;;;;;;;;5061590;28;20228;-67
2022/11/29 02:23:04;;;;;;;23.42;16.05;;;;;;;;;;5061588;28;20211;-67
2022/11/29 02:25:40;;;;;;;28.20;17.15;;;;;;;;;;5061543;28;20197;-67
2022/11/29 02:28:24;;;;;;;22.95;16.73;;;;;;;;;;5061468;28;20217;-67
2022/11/29 02:30:55;;;;;;;24.25;17.40;;;;;;;;;;5040639;28;20204;-67
2022/11/29 02:33:45;;;;;;;26.13;17.65;;;;;;;;;;5061662;28;20369;-67
2022/11/29 02:36:14;;;;;;;25.05;17.15;;;;;;;;;;5061753;28;20386;-67
2022/11/29 02:38:56;;;;;;;22.52;16.52;;;;;;;;;;5061523;28;20197;-67
2022/11/29 02:41:28;;;;;;;23.42;16.83;;;;;;;;;;5059672;28;20197;-67
2022/11/29 02:44:06;;;;;;;22.63;16.95;;;;;;;;;;5061462;28;20217;-67
2022/11/29 02:46:41;;;;;;;22.50;16.50;;;;;;;;;;5061331;28;20204;-67
2022/11/29 02:49:15;;;;;;;22.88;16.05;;;;;;;;;;5061331;28;20235;-67
2022/11/29 02:51:45;;;;;;;24.67;16.92;;;;;;;;;;5065211;28;20212;-67
2022/11/29 02:54:16;;;;;;;22.25;16.33;;;;;;;;;;5065024;28;20193;-67
2022/11/29 02:56:44;;;;;;;26.65;16.95;;;;;;;;;;5065388;28;20204;-67
2022/11/29 02:59:13;;;;;;;22.52;16.10;;;;;;;;;;5064938;28;20201;-67
2022/11/29 03:01:44;;;;;;;25.50;16.10;;;;;;;;;;5065437;28;20425;-67
2022/11/29 03:04:16;;;;;;;23.88;16.08;;;;;;;;;;5064967;28;20217;-67
2022/11/29 03:06:46;;;;;;;22.38;15.65;;;;;;;;;;5064901;28;20197;-67
2022/11/29 03:09:16;;;;;;;20.55;15.57;;;;;;;;;;5064829;28;20208;-67
2022/11/29 03:11:47;;;;;;;22.33;15.48;;;;;;;;;;5064781;28;20209;-67
2022/11/29 03:14:15;;;;;;;21.88;16.17;;;;;;;;;;5064868;28;20200;-67
2022/11/29 03:16:45;;;;;;;22.77;16.42;;;;;;;;;;5065137;28;20197;-67
2022/11/29 03:19:20;;;;;;;22.13;16.08;;;;;;;;;;5064161;28;20204;-67
2022/11/29 03:21:52;;;;;;;28.67;16.08;;;;;;;;;;5064800;28;20204;-67
2022/11/29 03:24:20;;;;;;;24.80;16.27;;;;;;;;;;5064745;28;20218;-67
2022/11/29 03:26:49;;;;;;;23.75;16.83;;;;;;;;;;5064596;28;20197;-67
2022/11/29 03:29:21;;;;;;;21.48;16.20;;;;;;;;;;5064235;28;20665;-67
2022/11/29 03:31:50;;;;;;;21.95;15.30;;;;;;;;;;5064411;28;20205;-67
2022/11/29 03:34:20;;;;;;;23.10;16.85;;;;;;;;;;5064360;28;20205;-67
2022/11/29 03:36:50;;;;;;;24.27;16.05;;;;;;;;;;5064664;28;20197;-67
2022/11/29 03:39:18;;;;;;;25.40;16.92;;;;;;;;;;5064124;28;20243;-67
2022/11/29 03:41:48;;;;;;;21.10;16.38;;;;;;;;;;5064324;28;20474;-67
2022/11/29 03:44:17;;;;;;;22.65;16.60;;;;;;;;;;5064064;28;20213;-67
2022/11/29 03:46:47;;;;;;;19.42;16.15;;;;;;;;;;5064434;28;20197;-67
2022/11/29 03:49:17;;;;;;;20.90;16.50;;;;;;;;;;5064065;28;20189;-67
2022/11/29 03:51:51;;;;;;;20.33;15.10;;;;;;;;;;5064208;28;20201;-67
2022/11/29 03:54:19;;;;;;;21.17;16.45;;;;;;;;;;5064169;28;20193;-67
2022/11/29 03:56:46;;;;;;;25.75;16.95;;;;;;;;;;5063966;28;20500;-67
2022/11/29 03:59:17;;;;;;;24.30;16.65;;;;;;;;;;5063824;28;20204;-67
2022/11/29 04:02:07;;;;;;;24.83;16.65;;;;;;;;;;5062815;28;20421;-67
2022/11/29 04:04:45;;;;;;;27.15;16.60;;;;;;;;;;5025524;28;20228;-67
2022/11/29 04:07:19;;;;;;;23.88;16.80;;;;;;;;;;5063735;28;20402;-67
2022/11/29 04:09:56;;;;;;;20.30;16.02;;;;;;;;;;5063742;28;20201;-67
2022/11/29 04:12:34;;;;;;;22.50;16.63;;;;;;;;;;5063818;28;20363;-67
2022/11/29 04:15:30;;;;;;;19.55;16.17;;;;;;;;;;5063875;28;20496;-67
2022/11/29 04:18:11;;;;;;;20.05;15.02;;;;;;;;;;5063540;28;20205;-67
2022/11/29 04:20:54;;;;;;;21.73;16.38;;;;;;;;;;5063556;28;20213;-67
2022/11/29 04:23:48;;;;;;;23.88;16.13;;;;;;;;;;5063920;28;20204;-67
2022/11/29 04:26:34;;;;;;;22.17;15.93;;;;;;;;;;5063745;28;20197;-67
2022/11/29 04:29:10;;;;;;;21.75;16.55;;;;;;;;;;5045657;28;20223;-67
2022/11/29 04:31:40;;;;;;;22.30;16.75;;;;;;;;;;5063388;28;20403;-67
2022/11/29 04:34:19;;;;;;;22.58;16.95;;;;;;;;;;5063238;28;20414;-67
2022/11/29 04:36:56;;;;;;;22.63;16.58;;;;;;;;;;5063185;28;20197;-67
2022/11/29 04:39:41;;;;;;;21.73;15.77;;;;;;;;;;5063158;28;20496;-67
2022/11/29 04:42:21;;;;;;;21.17;15.77;;;;;;;;;;5063538;28;20367;-67
2022/11/29 04:44:57;;;;;;;20.98;15.98;;;;;;;;;;5063274;28;20216;-67
2022/11/29 04:47:43;;;;;;;21.67;16.35;;;;;;;;;;5063187;28;20516;-67
2022/11/29 04:50:17;;;;;;;18.95;14.90;;;;;;;;;;5063065;28;20515;-67
2022/11/29 04:52:57;;;;;;;22.98;16.98;;;;;;;;;;5062858;28;20203;-67
2022/11/29 04:55:34;;;;;;;26.85;18.45;;;;;;;;;;5063043;28;20200;-67
2022/11/29 04:58:05;;;;;;;23.33;16.30;;;;;;;;;;5062737;28;20203;-67
2022/11/29 05:00:40;;;;;;;21.38;16.50;;;;;;;;;;5062994;28;20526;-67
2022/11/29 05:03:09;;;;;;;21.58;16.48;;;;;;;;;;5063304;28;20211;-67
2022/11/29 05:05:41;;;;;;;20.48;16.10;;;;;;;;;;5062448;28;20284;-67
2022/11/29 05:08:15;;;;;;;19.38;16.27;;;;;;;;;;5062552;28;20197;-67
2022/11/29 05:10:47;;;;;;;20.35;15.32;;;;;;;;;;5062904;28;20196;-67
2022/11/29 05:13:18;;;;;;;19.48;15.85;;;;;;;;;;5062216;28;20205;-67
2022/11/29 05:15:51;;;;;;;32.00;20.75;;;;;;;;;;5062408;28;20445;-67
2022/11/29 05:18:20;;;;;;;20.85;16.77;;;;;;;;;;5062382;28;20211;-67
2022/11/29 05:20:49;;;;;;;25.25;18.30;;;;;;;;;;5062309;28;20211;-68
2022/11/29 05:23:26;;;;;;;24.45;17.83;;;;;;;;;;5062458;28;20197;-68
2022/11/29 05:25:56;;;;;;;23.73;17.58;;;;;;;;;;5062284;28;20435;-68
2022/11/29 05:28:25;;;;;;;22.10;17.30;;;;;;;;;;5061983;28;20221;-68
2022/11/29 05:31:12;;;;;;;23.42;18.10;;;;;;;;;;5062477;28;20393;-68
2022/11/29 05:33:55;;;;;;;28.20;18.35;;;;;;;;;;5062387;28;20530;-68
2022/11/29 05:36:24;;;;;;;21.55;16.83;;;;;;;;;;5062198;28;20204;-68
2022/11/29 05:38:57;;;;;;;20.63;16.13;;;;;;;;;;5061791;28;20197;-68
2022/11/29 05:41:30;;;;;;;21.88;17.20;;;;;;;;;;5061960;28;20197;-68
2022/11/29 05:44:02;;;;;;;23.80;17.23;;;;;;;;;;5062101;28;20204;-67
2022/11/29 05:46:33;;;;;;;21.90;15.93;;;;;;;;;;5062081;28;20201;-67
2022/11/29 05:49:04;;;;;;;20.40;15.73;;;;;;;;;;5061675;28;20215;-67
2022/11/29 05:51:36;;;;;;;19.40;15.55;;;;;;;;;;5061833;28;20255;-67
2022/11/29 05:54:07;;;;;;;16.85;14.57;;;;;;;;;;5061903;28;20197;-67
2022/11/29 05:56:40;;;;;;;17.38;14.88;;;;;;;;;;5061972;28;20457;-67
2022/11/29 05:59:08;;;;;;;19.00;14.30;;;;;;;;;;5061625;28;20197;-67
2022/11/29 06:01:39;;;;;;;18.63;14.10;;;;;;;;;;5061850;28;20196;-67
2022/11/29 06:04:09;;;;;;;19.63;15.10;;;;;;;;;;5061944;28;20204;-67
2022/11/29 06:06:39;;;;;;;16.75;13.55;;;;;;;;;;5061417;28;20211;-67
2022/11/29 06:09:11;;;;;;;20.27;15.18;;;;;;;;;;5061172;28;20427;-67
2022/11/29 06:11:39;;;;;;;18.92;15.23;;;;;;;;;;5061415;28;20205;-67
2022/11/29 06:14:09;;;;;;;16.20;13.93;;;;;;;;;;5061369;28;20203;-67
2022/11/29 06:16:46;;;;;;;18.67;15.40;;;;;;;;;;5061458;28;20205;-67
2022/11/29 06:19:31;;;;;;;21.10;15.38;;;;;;;;;;5061158;28;20515;-67
2022/11/29 06:22:04;;;;;;;18.08;14.35;;;;;;;;;;5061559;28;20243;-67
2022/11/29 06:24:52;;;;;;;16.15;13.70;;;;;;;;;;5061809;28;20431;-67
2022/11/29 06:27:25;;;;;;;17.50;13.85;;;;;;;;;;5065512;28;20250;-68
2022/11/29 06:29:54;;;;;;;17.40;13.63;;;;;;;;;;5065019;28;20205;-69
2022/11/29 06:32:26;;;;;;;17.27;14.13;;;;;;;;;;5065260;28;20203;-69
2022/11/29 06:34:55;;;;;;;13.38;12.00;;;;;;;;;;5065197;28;20496;-69
2022/11/29 06:37:23;;;;;;;15.05;13.10;;;;;;;;;;5065346;28;20215;-68
2022/11/29 06:39:50;;;;;;;13.05;11.55;;;;;;;;;;5065041;28;20197;-68
2022/11/29 06:42:16;;;;;;;12.68;11.38;;;;;;;;;;5065251;28;20204;-68
2022/11/29 06:44:43;;;;;;;13.48;11.95;;;;;;;;;;5065279;28;20217;-68
2022/11/29 06:47:13;;;;;;;12.60;10.68;;;;;;;;;;5065098;28;20392;-68
2022/11/29 06:49:45;;;;;;;12.18;10.85;;;;;;;;;;5064665;28;20493;-68
2022/11/29 06:52:17;;;;;;;14.65;10.65;;;;;;;;;;5064961;28;20197;-68
2022/11/29 06:54:50;;;;;;;13.30;10.65;;;;;;;;;;5065010;28;20512;-68
2022/11/29 06:57:19;;;;;;;13.45;11.43;;;;;;;;;;5064751;28;20219;-68
2022/11/29 06:59:53;;;;;;;12.35;10.68;;;;;;;;;;5064739;28;20197;-68
2022/11/29 07:02:28;;;;;;;13.35;11.15;;;;;;;;;;5064945;28;20430;-68
2022/11/29 07:05:02;;;;;;;14.85;11.65;;;;;;;;;;5064849;28;20300;-68
2022/11/29 07:07:28;;;;;;;14.77;11.50;;;;;;;;;;5065016;28;20204;-68
2022/11/29 07:09:57;;;;;;;14.88;11.77;;;;;;;;;;5064805;28;20555;-68
2022/11/29 07:12:23;;;;;;;12.95;11.60;;;;;;;;;;5064730;28;20500;-68
2022/11/29 07:14:50;;;;;;;16.05;11.07;;;;;;;;;;5064598;28;20200;-68
2022/11/29 07:17:20;;;;;;;14.95;11.32;;;;;;;;;;5064669;28;20197;-68
2022/11/29 07:19:50;;;;;;;13.63;11.60;;;;;;;;;;5064383;28;20535;-59
2022/11/29 07:22:26;;;;;;;12.25;10.25;;;;;;;;;;5064674;28;20424;-60
2022/11/29 07:24:56;;;;;;;12.82;10.45;;;;;;;;;;5060514;28;20219;-59
2022/11/29 07:27:26;;;;;;;14.48;11.35;;;;;;;;;;5054831;28;20589;-58
2022/11/29 07:30:02;;;;;;;13.15;10.93;;;;;;;;;;5043547;28;20577;-60
2022/11/29 07:32:34;;;;;;;14.00;11.88;;;;;;;;;;5058501;28;20216;-59
2022/11/29 07:35:02;;;;;;;15.27;12.38;;;;;;;;;;5058664;28;20213;-59
2022/11/29 07:37:34;;;;;;;13.75;11.57;;;;;;;;;;5058167;28;20209;-59
2022/11/29 07:40:05;;;;;;;14.10;12.02;;;;;;;;;;5058757;28;20209;-58
2022/11/29 07:42:37;;;;;;;15.10;11.65;;;;;;;;;;5058654;28;20213;-59
2022/11/29 07:45:06;;;;;;;14.15;12.00;;;;;;;;;;5058716;28;20228;-59
2022/11/29 07:47:33;;;;;;;15.63;11.45;;;;;;;;;;5058534;28;20703;-58
2022/11/29 07:49:59;;;;;;;16.67;12.13;;;;;;;;;;5058406;28;20209;-59
2022/11/29 07:52:25;;;;;;;18.20;12.88;;;;;;;;;;5058492;28;20209;-59
2022/11/29 07:54:53;;;;;;;13.88;12.48;;;;;;;;;;5057380;28;20552;-59
2022/11/29 07:57:19;;;;;;;15.48;12.35;;;;;;;;;;5058021;28;20217;-59
2022/11/29 07:59:45;;;;;;;15.73;12.15;;;;;;;;;;5058446;28;20440;-60
2022/11/29 08:02:12;;;;;;;14.93;13.35;;;;;;;;;;5058598;28;20208;-59
2022/11/29 08:04:40;;;;;;;18.08;13.15;;;;;;;;;;5058712;28;20209;-59
2022/11/29 08:07:07;;;;;;;16.45;12.05;;;;;;;;;;5042468;28;20459;-59
2022/11/29 08:09:33;;;;;;;17.63;13.05;;;;;;;;;;5041864;28;20214;-59
2022/11/29 08:12:01;;;;;;;17.05;12.35;;;;;;;;;;5036457;28;20449;-59
2022/11/29 08:14:30;;;;;;;16.95;12.68;;;;;;;;;;5036555;28;20220;-60
2022/11/29 08:16:56;;;;;;;15.27;12.82;;;;;;;;;;5048385;28;20212;-60
2022/11/29 08:19:23;;;;;;;19.77;12.93;;;;;;;;;;5056089;28;20467;-58
2022/11/29 08:21:50;;;;;;;18.08;13.27;;;;;;;;;;5042869;28;20295;-58
2022/11/29 08:24:16;;;;;;;14.07;12.60;;;;;;;;;;5036173;28;20213;-58
2022/11/29 08:26:43;;;;;;;15.15;12.63;;;;;;;;;;5036596;28;20650;-59
2022/11/29 08:29:10;;;;;;;12.30;10.63;;;;;;;;;;5036609;28;20444;-59
2022/11/29 08:31:37;;;;;;;14.48;12.32;;;;;;;;;;5036681;28;20221;-59
2022/11/29 08:34:05;;;;;;;12.55;11.25;;;;;;;;;;5046423;28;20479;-59
2022/11/29 08:36:31;;;;;;;14.65;13.02;;;;;;;;;;5047952;28;20206;-60
2022/11/29 08:38:57;;;;;;;15.60;13.10;;;;;;;;;;5048345;28;20201;-58
2022/11/29 08:41:23;;;;;;;12.00;10.90;;;;;;;;;;5056846;28;20452;-59
2022/11/29 08:43:50;;;;;;;12.15;10.95;;;;;;;;;;5036652;28;20291;-59
2022/11/29 08:46:17;;;;;;;12.38;9.60;;;;;;;;;;5035730;28;20229;-57
2022/11/29 08:48:44;;;;;;;9.90;9.07;;;;;;;;;;5035154;28;20205;-60
2022/11/29 08:51:10;;;;;;;10.25;9.25;;;;;;;;;;5045780;28;20219;-59
2022/11/29 08:53:41;;;;;;;10.07;9.05;;;;;;;;;;5055760;28;20212;-58
2022/11/29 08:56:08;;;;;;;9.02;8.23;;;;;;;;;;5051193;28;20288;-59
2022/11/29 08:58:35;;;;;;;9.88;8.88;;;;;;;;;;5054889;28;20208;-60
2022/11/29 09:01:01;;;;;;;9.52;8.65;;;;;;;;;;5051756;28;20209;-59
2022/11/29 09:06:14;;;;;;;9.68;8.57;;;;;;;;;;5043846;28;20239;-59
2022/11/29 09:08:42;;;;;;;10.05;8.50;;;;;;;;;;5038497;28;20214;-60
2022/11/29 09:11:12;;;;;;;10.70;8.55;;;;;;;;;;5035512;28;20214;-60
2022/11/29 09:13:38;;;;;;;8.88;7.75;;;;;;;;;;5043317;28;20520;-59
2022/11/29 09:16:06;;;;;;;8.95;8.13;;;;;;;;;;5055888;28;20417;-58
2022/11/29 09:18:34;;;;;;;9.10;8.00;;;;;;;;;;5055189;28;20461;-61
2022/11/29 09:21:00;;;;;;;8.77;7.97;;;;;;;;;;5045080;28;20532;-61
2022/11/29 09:23:26;;;;;;;8.05;7.43;;;;;;;;;;5035852;28;20479;-61
2022/11/29 09:25:53;;;;;;;7.50;6.70;;;;;;;;;;5055433;28;20229;-61
2022/11/29 09:28:19;;;;;;;6.13;5.72;;;;;;;;;;5054885;28;20225;-61
2022/11/29 09:30:45;;;;;;;4.85;4.22;;;;;;;;;;5055755;28;20542;-61
2022/11/29 09:33:12;;;;;;;4.35;4.07;;;;;;;;;;5055173;28;20429;-61
2022/11/29 09:35:39;;;;;;;4.97;4.70;;;;;;;;;;5049566;28;20207;-61
2022/11/29 09:38:05;;;;;;;3.47;3.35;;;;;;;;;;5034642;28;20218;-59
2022/11/29 09:40:37;;;;;;;3.65;3.45;;;;;;;;;;5034676;28;20218;-60
2022/11/29 09:43:06;;;;;;;4.18;3.97;;;;;;;;;;5039709;28;20445;-59
2022/11/29 09:45:34;;;;;;;4.43;4.15;;;;;;;;;;5034720;28;20233;-60
2022/11/29 09:48:12;;;;;;;4.47;4.22;;;;;;;;;;5033314;28;20554;-59
2022/11/29 09:50:45;;;;;;;4.57;4.38;;;;;;;;;;5050999;28;20250;-60
2022/11/29 09:53:22;;;;;;;5.38;5.03;;;;;;;;;;5051979;28;20220;-60
2022/11/29 09:55:54;;;;;;;5.75;5.35;;;;;;;;;;5034660;28;20487;-59
2022/11/29 09:58:22;;;;;;;5.93;5.53;;;;;;;;;;5048278;28;20251;-59
2022/11/29 10:00:50;;;;;;;5.82;5.53;;;;;;;;;;5034541;28;20220;-59
2022/11/29 10:03:19;;;;;;;5.35;5.03;;;;;;;;;;5054295;28;20572;-58
2022/11/29 10:05:49;;;;;;;6.20;5.80;;;;;;;;;;5053782;28;20468;-58
2022/11/29 10:08:18;;;;;;;5.90;5.50;;;;;;;;;;5048874;28;20213;-59
2022/11/29 10:10:46;;;;;;;5.90;5.40;;;;;;;;;;5034639;28;20213;-58
2022/11/29 10:13:15;;;;;;;6.43;5.93;;;;;;;;;;5050456;28;20213;-58
2022/11/29 10:15:43;;;;;;;6.15;5.68;;;;;;;;;;5044481;28;20229;-58
2022/11/29 10:18:12;;;;;;;6.90;6.40;;;;;;;;;;5043539;28;20458;-59
2022/11/29 10:20:39;;;;;;;7.07;6.55;;;;;;;;;;5046735;28;20209;-58
2022/11/29 10:23:12;;;;;;;7.70;7.10;;;;;;;;;;5049393;28;20220;-58
2022/11/29 10:25:45;;;;;;;9.40;7.68;;;;;;;;;;5053401;28;20598;-57
2022/11/29 10:28:14;;;;;;;8.88;8.18;;;;;;;;;;5054432;28;20235;-58
2022/11/29 10:30:41;;;;;;;8.57;7.82;;;;;;;;;;5054980;28;20209;-59
2022/11/29 10:33:10;;;;;;;8.32;7.63;;;;;;;;;;5054591;28;20521;-59
2022/11/29 10:35:37;;;;;;;8.98;8.18;;;;;;;;;;5034545;28;20448;-58
2022/11/29 10:38:03;;;;;;;8.80;7.90;;;;;;;;;;5033483;28;20214;-57
2022/11/29 10:40:33;;;;;;;9.43;8.57;;;;;;;;;;5034264;28;20205;-57
2022/11/29 10:42:59;;;;;;;9.40;8.50;;;;;;;;;;5033973;28;20218;-56
2022/11/29 10:45:27;;;;;;;9.02;8.15;;;;;;;;;;5034262;28;20232;-57
2022/11/29 10:47:54;;;;;;;7.97;7.28;;;;;;;;;;5034099;28;20221;-57
2022/11/29 10:50:22;;;;;;;7.45;6.78;;;;;;;;;;5047985;28;20209;-57
2022/11/29 10:52:48;;;;;;;8.10;7.47;;;;;;;;;;5053902;28;20532;-57
2022/11/29 10:55:16;;;;;;;7.13;6.60;;;;;;;;;;5054436;28;20236;-57
2022/11/29 10:57:57;;;;;;;7.45;6.88;;;;;;;;;;5053113;28;20217;-57
2022/11/29 11:00:26;;;;;;;7.93;7.22;;;;;;;;;;5054794;28;20467;-57
2022/11/29 11:02:52;;;;;;;8.45;7.75;;;;;;;;;;5054785;28;20216;-57
2022/11/29 11:05:24;;;;;;;8.60;7.90;;;;;;;;;;5051932;28;20226;-57
2022/11/29 11:07:55;;;;;;;9.38;8.65;;;;;;;;;;5041713;28;20214;-55
2022/11/29 11:10:25;;;;;;;8.43;7.72;;;;;;;;;;5054308;28;20220;-57
2022/11/29 11:13:00;;;;;;;7.97;7.38;;;;;;;;;;5057123;28;20488;-62
2022/11/29 11:15:28;;;;;;;10.88;9.75;;;;;;;;;;5058221;28;20303;-59
2022/11/29 11:17:56;;;;;;;11.40;10.30;;;;;;;;;;5056805;28;20220;-58
2022/11/29 11:20:23;;;;;;;9.48;8.50;;;;;;;;;;5057164;28;20534;-58
2022/11/29 11:22:56;;;;;;;8.27;7.68;;;;;;;;;;5057883;28;20221;-59
2022/11/29 11:25:25;;;;;;;6.82;6.43;;;;;;;;;;5057499;28;20220;-58
2022/11/29 11:27:51;;;;;;;8.65;7.95;;;;;;;;;;5056337;28;20619;-58
2022/11/29 11:30:18;;;;;;;8.23;7.45;;;;;;;;;;5057636;28;20216;-58
2022/11/29 11:33:05;;;;;;;10.30;9.35;;;;;;;;;;5058431;28;20483;-58
2022/11/29 11:35:31;;;;;;;8.27;7.68;;;;;;;;;;5057808;28;20393;-58
2022/11/29 11:37:58;;;;;;;9.50;8.70;;;;;;;;;;5036977;28;20220;-58
2022/11/29 11:40:27;;;;;;;7.65;7.03;;;;;;;;;;5036901;28;20406;-58
2022/11/29 11:42:54;;;;;;;8.20;7.40;;;;;;;;;;5042432;28;20241;-58
2022/11/29 11:45:26;;;;;;;7.97;7.30;;;;;;;;;;5055434;28;20544;-58
2022/11/29 11:47:54;;;;;;;7.82;7.32;;;;;;;;;;5039914;28;20210;-58
2022/11/29 11:50:29;;;;;;;7.55;6.95;;;;;;;;;;5037118;28;20410;-58
2022/11/29 11:52:56;;;;;;;7.25;6.75;;;;;;;;;;5037705;28;20217;-59
2022/11/29 11:55:27;;;;;;;7.45;6.95;;;;;;;;;;5037581;28;20217;-59
2022/11/29 11:57:57;;;;;;;7.38;6.78;;;;;;;;;;5047897;28;20220;-59
2022/11/29 12:00:37;;;;;;;8.13;7.53;;;;;;;;;;5053404;28;20513;-59
2022/11/29 12:03:05;;;;;;;8.10;7.35;;;;;;;;;;5037240;28;20218;-59
2022/11/29 12:05:32;;;;;;;9.20;8.35;;;;;;;;;;5036682;28;20256;-59
2022/11/29 12:08:01;;;;;;;8.18;7.47;;;;;;;;;;5035654;28;20237;-59
2022/11/29 12:10:30;;;;;;;7.95;7.35;;;;;;;;;;5036272;28;20221;-58
2022/11/29 12:12:57;;;;;;;8.88;8.18;;;;;;;;;;5035988;28;20217;-58
2022/11/29 12:15:25;;;;;;;8.52;7.88;;;;;;;;;;5045473;28;20213;-58
2022/11/29 12:17:52;;;;;;;8.98;8.18;;;;;;;;;;5055883;28;20224;-58
2022/11/29 12:20:21;;;;;;;10.07;9.18;;;;;;;;;;5056923;28;20221;-58
2022/11/29 12:22:55;;;;;;;9.75;8.75;;;;;;;;;;5055348;28;20213;-58
2022/11/29 12:25:24;;;;;;;9.20;8.30;;;;;;;;;;5055991;28;20212;-58
2022/11/29 12:27:50;;;;;;;9.55;8.60;;;;;;;;;;5056072;28;20560;-58
2022/11/29 12:30:17;;;;;;;8.63;7.82;;;;;;;;;;5056918;28;20232;-58
2022/11/29 12:32:56;;;;;;;8.13;7.38;;;;;;;;;;5057273;28;20467;-58
2022/11/29 12:35:33;;;;;;;7.38;6.80;;;;;;;;;;5056663;28;20209;-58
2022/11/29 12:38:05;;;;;;;7.53;6.93;;;;;;;;;;5055209;28;20547;-55
2022/11/29 12:40:37;;;;;;;8.10;7.40;;;;;;;;;;5055231;28;20220;-58
2022/11/29 12:43:09;;;;;;;8.13;7.25;;;;;;;;;;5056614;28;20400;-58
2022/11/29 12:45:40;;;;;;;7.78;7.07;;;;;;;;;;5056365;28;20524;-58
2022/11/29 12:48:13;;;;;;;6.95;6.45;;;;;;;;;;5054804;28;20236;-58
2022/11/29 12:50:44;;;;;;;7.30;6.80;;;;;;;;;;5055275;28;20547;-58
2022/11/29 12:53:18;;;;;;;7.30;6.78;;;;;;;;;;5036171;28;20222;-57
2022/11/29 12:55:49;;;;;;;8.13;7.32;;;;;;;;;;5037712;28;20231;-57
2022/11/29 12:58:21;;;;;;;7.60;6.90;;;;;;;;;;5035943;28;20248;-58
2022/11/29 13:00:54;;;;;;;7.63;6.93;;;;;;;;;;5035907;28;20220;-58
2022/11/29 13:03:26;;;;;;;7.43;6.80;;;;;;;;;;5035975;28;20213;-58
2022/11/29 13:05:56;;;;;;;7.70;7.00;;;;;;;;;;5035400;28;20213;-58
2022/11/29 13:08:36;;;;;;;7.65;7.05;;;;;;;;;;5035272;28;20276;-57
2022/11/29 13:11:05;;;;;;;6.97;6.43;;;;;;;;;;5042068;28;20551;-58
2022/11/29 13:13:36;;;;;;;7.07;6.47;;;;;;;;;;5035426;28;20440;-58
2022/11/29 13:16:05;;;;;;;7.55;6.95;;;;;;;;;;5035481;28;20643;-58
2022/11/29 13:18:35;;;;;;;7.80;7.10;;;;;;;;;;5052496;28;20278;-58
2022/11/29 13:21:05;;;;;;;11.70;8.73;;;;;;;;;;5055283;28;20200;-58
2022/11/29 13:23:35;;;;;;;8.73;7.35;;;;;;;;;;5054882;28;20400;-58
2022/11/29 13:26:05;;;;;;;8.48;7.70;;;;;;;;;;5052188;28;20213;-58
2022/11/29 13:28:32;;;;;;;7.13;6.57;;;;;;;;;;5035125;28;20230;-58
2022/11/29 13:31:00;;;;;;;7.35;6.70;;;;;;;;;;5052930;28;20216;-58
2022/11/29 13:33:27;;;;;;;6.78;6.28;;;;;;;;;;5054935;28;20302;-60
2022/11/29 13:35:58;;;;;;;6.63;6.13;;;;;;;;;;5054693;28;20212;-60
2022/11/29 13:38:27;;;;;;;7.78;7.18;;;;;;;;;;5054612;28;20220;-60
2022/11/29 13:40:57;;;;;;;7.82;7.13;;;;;;;;;;5049021;28;20209;-60
2022/11/29 13:43:27;;;;;;;6.68;6.07;;;;;;;;;;5039036;28;20229;-60
2022/11/29 13:45:57;;;;;;;6.97;6.38;;;;;;;;;;5055148;28;20349;-60
2022/11/29 13:48:36;;;;;;;7.05;6.45;;;;;;;;;;5054155;28;20251;-60
2022/11/29 13:51:36;;;;;;;6.93;6.00;;;;;;;;;;5055221;28;20561;-60
2022/11/29 13:54:03;;;;;;;5.65;5.32;;;;;;;;;;5012378;28;20214;-59
2022/11/29 13:56:41;;;;;;;7.13;6.43;;;;;;;;;;4993412;28;20544;-59
2022/11/29 13:59:12;;;;;;;7.22;6.53;;;;;;;;;;5014343;28;20445;-59
2022/11/29 14:01:46;;;;;;;6.50;6.00;;;;;;;;;;5039905;28;20659;-59
2022/11/29 14:04:27;;;;;;;6.43;6.00;;;;;;;;;;5034855;28;20260;-61
2022/11/29 14:07:03;;;;;;;6.88;6.28;;;;;;;;;;5037731;28;20233;-58
2022/11/29 14:09:33;;;;;;;6.95;6.45;;;;;;;;;;5053997;28;20213;-58
2022/11/29 14:12:03;;;;;;;7.18;6.50;;;;;;;;;;5039843;28;20227;-57
2022/11/29 14:14:32;;;;;;;6.63;6.03;;;;;;;;;;5034446;28;20213;-57
2022/11/29 14:16:59;;;;;;;6.88;6.28;;;;;;;;;;5034392;28;20216;-57
2022/11/29 14:19:27;;;;;;;6.25;5.75;;;;;;;;;;5034672;28;20529;-58
2022/11/29 14:22:23;;;;;;;7.13;6.63;;;;;;;;;;5048309;28;21294;-56
2022/11/29 14:24:57;;;;;;;6.97;6.32;;;;;;;;;;5039764;28;20209;-58
2022/11/29 14:27:42;;;;;;;7.38;6.68;;;;;;;;;;5054827;28;20485;-57
2022/11/29 14:30:23;;;;;;;6.07;5.68;;;;;;;;;;5054070;28;20457;-58
2022/11/29 14:32:56;;;;;;;6.45;6.03;;;;;;;;;;5041319;28;20290;-57
2022/11/29 14:35:26;;;;;;;6.28;5.78;;;;;;;;;;5034993;28;20251;-58
2022/11/29 14:37:56;;;;;;;6.35;5.85;;;;;;;;;;5034233;28;20217;-58
2022/11/29 14:40:27;;;;;;;6.40;5.90;;;;;;;;;;5034612;28;20606;-57
2022/11/29 14:42:53;;;;;;;6.90;6.40;;;;;;;;;;5043738;28;20212;-58
2022/11/29 14:45:28;;;;;;;7.03;6.43;;;;;;;;;;5042887;28;20221;-58
2022/11/29 14:47:56;;;;;;;6.57;6.07;;;;;;;;;;5055071;28;20232;-58